createdAt,value
2018-09-04T00:00:35.136Z,100063.80
2018-09-04T00:05:38.837Z,100062.83
2018-09-04T00:10:42.442Z,100057.80
2018-09-04T00:15:46.016Z,100062.58
2018-09-04T00:20:49.648Z,100054.97
2018-09-04T00:25:53.300Z,100044.67
2018-09-04T00:30:56.895Z,100048.56
2018-09-04T00:36:00.520Z,100048.48
2018-09-04T00:41:04.129Z,100047.00
2018-09-04T00:46:08.009Z,100043.20
2018-09-04T00:51:11.719Z,100042.34
2018-09-04T00:56:15.370Z,100045.67
2018-09-04T01:01:19.070Z,100044.95
2018-09-04T01:06:22.677Z,100039.66
2018-09-04T01:11:26.367Z,100046.67
2018-09-04T01:16:30.064Z,100046.05
2018-09-04T01:21:33.754Z,100048.39
2018-09-04T01:26:37.376Z,100044.57
2018-09-04T01:31:41.939Z,100039.56
2018-09-04T01:36:45.577Z,100044.97
2018-09-04T01:41:49.246Z,100041.02
2018-09-04T01:46:53.001Z,100039.17
2018-09-04T01:51:56.711Z,100041.02
2018-09-04T01:57:00.396Z,100042.50
2018-09-04T02:02:04.030Z,100041.77
2018-09-04T02:07:07.652Z,100043.61
2018-09-04T02:12:11.340Z,100039.80
2018-09-04T02:17:15.012Z,100051.08
2018-09-04T02:22:18.691Z,100053.06
2018-09-04T02:27:22.313Z,100052.80
2018-09-04T02:32:25.917Z,100054.64
2018-09-04T02:37:29.460Z,100053.91
2018-09-04T02:42:33.041Z,100054.50
2018-09-04T02:47:36.686Z,100056.08
2018-09-04T02:52:40.389Z,100057.78
2018-09-04T02:57:44.000Z,100066.59
2018-09-04T03:02:47.604Z,100070.77
2018-09-04T03:07:51.247Z,100072.25
2018-09-04T03:12:54.888Z,100076.52
2018-09-04T03:17:58.524Z,100074.44
2018-09-04T03:23:02.225Z,100077.27
2018-09-04T03:28:05.864Z,100077.48
2018-09-04T03:33:09.581Z,100083.02
2018-09-04T03:38:13.285Z,100086.20
2018-09-04T03:43:17.039Z,100080.05
2018-09-04T03:48:20.663Z,100080.99
2018-09-04T03:53:24.290Z,100085.02
2018-09-04T03:58:27.977Z,100088.69
2018-09-04T04:03:31.630Z,100096.59
2018-09-04T04:08:35.443Z,100091.81
2018-09-04T04:13:39.006Z,100095.97
2018-09-04T04:18:43.066Z,100097.84
2018-09-04T04:23:46.722Z,100091.73
2018-09-04T04:28:50.339Z,100104.58
2018-09-04T04:33:54.045Z,100102.13
2018-09-04T04:38:57.722Z,100104.70
2018-09-04T04:44:01.343Z,100094.28
2018-09-04T04:49:05.318Z,100100.05
2018-09-04T04:54:08.979Z,100102.05
2018-09-04T04:59:12.625Z,100109.10
2018-09-04T05:04:16.315Z,100108.84
2018-09-04T05:09:19.978Z,100118.45
2018-09-04T05:14:23.607Z,100121.00
2018-09-04T05:19:27.286Z,100119.66
2018-09-04T05:24:30.898Z,100129.32
2018-09-04T05:29:34.558Z,100125.72
2018-09-04T05:34:38.158Z,100133.55
2018-09-04T05:39:41.746Z,100145.64
2018-09-04T05:44:45.414Z,100140.09
2018-09-04T05:49:49.026Z,100142.67
2018-09-04T05:54:52.620Z,100144.67
2018-09-04T05:59:56.307Z,100146.88
2018-09-04T06:05:00.509Z,100153.43
2018-09-04T06:10:04.246Z,100155.15
2018-09-04T06:15:07.874Z,100157.07
2018-09-04T06:20:11.514Z,100153.72
2018-09-04T06:25:15.228Z,100156.18
2018-09-04T06:30:18.876Z,100153.80
2018-09-04T06:35:22.519Z,100149.63
2018-09-04T06:40:26.171Z,100151.66
2018-09-04T06:45:29.867Z,100153.55
2018-09-04T06:50:33.521Z,100158.27
2018-09-04T06:55:37.193Z,100163.75
2018-09-04T07:00:40.833Z,100162.22
2018-09-04T07:05:44.458Z,100170.21
2018-09-04T07:10:48.059Z,100179.12
2018-09-04T07:15:51.828Z,100179.70
2018-09-04T07:20:55.454Z,100183.78
2018-09-04T07:25:59.149Z,100179.48
2018-09-04T07:31:02.774Z,100185.75
2018-09-04T07:36:06.885Z,100192.16
2018-09-04T07:41:10.547Z,100187.69
2018-09-04T07:46:14.195Z,100183.67
2018-09-04T07:51:17.926Z,100182.08
2018-09-04T07:56:21.559Z,100182.81
2018-09-04T08:01:25.300Z,100175.73
2018-09-04T08:06:28.972Z,100177.23
2018-09-04T08:11:32.655Z,100173.43
2018-09-04T08:16:36.703Z,100169.29
2018-09-04T08:21:40.391Z,100166.84
2018-09-04T08:26:44.082Z,100166.84
2018-09-04T08:31:47.705Z,100159.26
2018-09-04T08:36:51.437Z,100155.00
2018-09-04T08:41:55.067Z,100155.00
2018-09-04T08:46:58.704Z,100148.10
2018-09-04T08:52:02.349Z,100146.28
2018-09-04T08:57:06.213Z,100141.03
2018-09-04T09:02:09.825Z,100140.78
2018-09-04T09:07:13.602Z,100138.35
2018-09-04T09:12:17.331Z,100135.40
2018-09-04T09:17:20.945Z,100133.56
2018-09-04T09:22:24.536Z,100137.02
2018-09-04T09:27:28.094Z,100141.80
2018-09-04T09:32:31.777Z,100136.66
2018-09-04T09:37:35.417Z,100131.64
2018-09-04T09:42:39.108Z,100131.14
2018-09-04T09:47:48.790Z,100129.97
2018-09-04T09:52:52.416Z,100126.78
2018-09-04T09:57:56.046Z,100127.32
2018-09-04T10:03:06.155Z,100116.20
2018-09-04T10:08:09.885Z,100113.16
2018-09-04T10:13:13.518Z,100117.34
2018-09-04T10:18:17.200Z,100114.25
2018-09-04T10:23:20.932Z,100115.02
2018-09-04T10:28:24.625Z,100116.59
2018-09-04T10:33:28.234Z,100113.31
2018-09-04T10:38:31.961Z,100118.58
2018-09-04T10:43:35.587Z,100117.72
2018-09-04T10:48:39.459Z,100111.56
2018-09-04T10:53:43.041Z,100103.23
2018-09-04T10:58:46.688Z,100101.66
2018-09-04T11:03:50.327Z,100101.53
2018-09-04T11:08:53.901Z,100096.86
2018-09-04T11:13:57.552Z,100089.61
2018-09-04T11:19:01.274Z,100090.24
2018-09-04T11:24:05.017Z,100077.95
2018-09-04T11:29:09.512Z,100076.11
2018-09-04T11:34:13.146Z,100067.78
2018-09-04T11:39:16.777Z,100065.08
2018-09-04T11:44:20.434Z,100079.17
2018-09-04T11:49:24.026Z,100072.42
2018-09-04T11:54:27.720Z,100070.98
2018-09-04T11:59:35.638Z,100068.50
2018-09-04T12:04:39.232Z,100070.34
2018-09-04T12:09:42.959Z,100076.24
2018-09-04T12:14:46.659Z,100076.11
2018-09-04T12:20:07.794Z,100069.00
2018-09-04T12:25:11.337Z,100067.78
2018-09-04T12:30:14.978Z,100066.16
2018-09-04T12:35:18.648Z,100066.66
2018-09-04T12:40:22.255Z,100064.80
2018-09-04T12:45:26.019Z,100058.45
2018-09-04T12:50:29.639Z,100052.41
2018-09-04T12:55:33.335Z,100049.58
2018-09-04T13:00:37.001Z,100043.58
2018-09-04T13:05:41.163Z,100045.38
2018-09-04T13:10:44.943Z,100046.00
2018-09-04T13:15:56.501Z,100046.75
2018-09-04T13:21:05.289Z,100033.01
2018-09-04T13:26:08.941Z,100033.37
2018-09-04T13:31:12.595Z,100035.34
2018-09-04T13:36:16.197Z,100037.77
2018-09-04T13:41:19.831Z,100033.84
2018-09-04T13:46:23.503Z,100033.98
2018-09-04T13:51:27.141Z,100028.72
2018-09-04T13:56:30.779Z,100027.97
2018-09-04T14:01:34.372Z,100029.67
2018-09-04T14:06:38.006Z,100035.56
2018-09-04T14:11:41.647Z,100042.23
2018-09-04T14:16:45.255Z,100035.34
2018-09-04T14:21:49.076Z,100029.44
2018-09-04T14:26:52.938Z,100030.05
2018-09-04T14:31:56.640Z,100031.77
2018-09-04T14:37:00.523Z,100036.04
2018-09-04T14:42:04.361Z,100035.05
2018-09-04T14:47:07.950Z,100034.09
2018-09-04T14:52:11.601Z,100039.85
2018-09-04T14:57:15.214Z,100041.79
2018-09-04T15:02:18.831Z,100040.94
2018-09-04T15:07:22.480Z,100043.99
2018-09-04T15:12:26.105Z,100043.03
2018-09-04T15:17:29.759Z,100040.69
2018-09-04T15:22:33.526Z,100039.92
2018-09-04T15:27:37.133Z,100048.28
2018-09-04T15:32:40.746Z,100048.64
2018-09-04T15:37:44.415Z,100043.49
2018-09-04T15:42:48.052Z,100046.17
2018-09-04T15:47:51.650Z,100042.56
2018-09-04T15:52:55.298Z,100041.47
2018-09-04T15:57:58.960Z,100041.19
2018-09-04T16:03:02.623Z,100042.91
2018-09-04T16:08:06.277Z,100045.45
2018-09-04T16:13:09.888Z,100046.13
2018-09-04T16:18:13.572Z,100051.94
2018-09-04T16:23:17.450Z,100050.19
2018-09-04T16:28:21.117Z,100045.16
2018-09-04T16:33:24.832Z,100044.81
2018-09-04T16:38:28.707Z,100049.86
2018-09-04T16:43:32.367Z,100049.86
2018-09-04T16:48:36.021Z,100049.86
2018-09-04T16:53:39.589Z,100050.50
2018-09-04T16:58:43.277Z,100058.25
2018-09-04T17:03:47.033Z,100067.96
2018-09-04T17:08:50.865Z,100066.85
2018-09-04T17:13:54.729Z,100067.63
2018-09-04T17:18:58.479Z,100067.77
2018-09-04T17:24:02.033Z,100070.35
2018-09-04T17:29:05.927Z,100076.75
2018-09-04T17:34:09.875Z,100074.65
2018-09-04T17:39:14.120Z,100078.46
2018-09-04T17:44:18.438Z,100086.69
2018-09-04T17:49:22.057Z,100088.77
2018-09-04T17:54:25.697Z,100095.75
2018-09-04T17:59:29.751Z,100094.77
2018-09-04T18:04:34.385Z,100097.69
2018-09-04T18:09:38.764Z,100113.17
2018-09-04T18:14:42.782Z,100117.34
2018-09-04T18:19:46.650Z,100119.81
2018-09-04T18:24:51.658Z,100125.94
2018-09-04T18:29:55.970Z,100138.36
2018-09-04T18:35:00.050Z,100141.65
2018-09-04T18:40:03.911Z,100152.73
2018-09-04T18:45:08.380Z,100155.30
2018-09-04T18:50:13.262Z,100158.86
2018-09-04T18:55:17.972Z,100160.84
2018-09-04T19:00:21.788Z,100163.41
2018-09-04T19:05:26.889Z,100178.16
2018-09-04T19:10:31.434Z,100171.89
2018-09-04T19:15:36.328Z,100176.56
2018-09-04T19:20:40.069Z,100182.19
2018-09-04T19:25:44.490Z,100186.50
2018-09-04T19:30:48.106Z,100190.42
2018-09-04T19:35:53.414Z,100189.57
2018-09-04T19:40:58.061Z,100194.48
2018-09-04T19:46:02.259Z,100200.16
2018-09-04T19:51:07.355Z,100210.98
2018-09-04T19:56:12.154Z,100208.13
2018-09-04T20:01:18.027Z,100222.16
2018-09-04T20:06:24.417Z,100224.51
2018-09-04T20:11:29.115Z,100228.43
2018-09-04T20:16:34.934Z,100229.78
2018-09-04T20:21:38.735Z,100230.14
2018-09-04T20:26:43.713Z,100236.41
2018-09-04T20:31:47.513Z,100229.65
2018-09-04T20:36:51.190Z,100227.94
2018-09-04T20:41:55.309Z,100227.44
2018-09-04T20:46:59.965Z,100235.06
2018-09-04T20:52:04.720Z,100237.27
2018-09-04T20:57:27.451Z,100239.98
2018-09-04T21:02:42.202Z,100238.98
2018-09-04T21:08:02.317Z,100244.78
2018-09-04T21:13:06.097Z,100252.52
2018-09-04T21:18:10.441Z,100254.86
2018-09-04T21:23:14.135Z,100261.03
2018-09-04T21:28:17.756Z,100258.56
2018-09-04T21:33:21.513Z,100260.77
2018-09-04T21:38:25.185Z,100257.20
2018-09-04T21:43:28.969Z,100257.56
2018-09-04T21:48:32.708Z,100254.50
2018-09-04T21:53:36.690Z,100260.41
2018-09-04T21:58:40.335Z,100263.12
2018-09-04T22:03:43.969Z,100260.55
2018-09-04T22:08:47.790Z,100265.96
2018-09-04T22:13:51.588Z,100268.17
2018-09-04T22:18:55.410Z,100272.83
2018-09-04T22:23:59.212Z,100280.09
2018-09-04T22:29:02.994Z,100284.65
2018-09-04T22:34:06.785Z,100282.80
2018-09-04T22:39:11.218Z,100278.38
2018-09-04T22:44:14.941Z,100287.98
2018-09-04T22:49:18.737Z,100289.70
2018-09-04T22:54:22.559Z,100293.89
2018-09-04T22:59:27.261Z,100298.81
2018-09-04T23:04:30.914Z,100296.10
2018-09-04T23:09:34.576Z,100297.09
2018-09-04T23:14:38.249Z,100294.89
2018-09-04T23:19:41.925Z,100296.84
2018-09-04T23:24:45.654Z,100298.92
2018-09-04T23:29:50.393Z,100300.86
2018-09-04T23:34:53.973Z,100299.01
2018-09-04T23:39:57.608Z,100289.67
2018-09-04T23:45:02.430Z,100290.66
2018-09-04T23:50:07.109Z,100290.05
2018-09-04T23:55:10.878Z,100283.16
